Flight Track Log - Related Links

Times and Time Zones

All times are in EDT time to prevent confusion due to time zone crossing. See the RPA3242 flight status page for this flight to view local times or setup timezone preferences in your user account.

Time Position Orientation Groundspeed Altitude Reporting Facility
EDT Latitude Longitude Course Direction KTS MPH feet Rate Location/Type
Tue 06:26:33 PM 42.2036 -83.3556 90° East 141 162 1,300  Level Cleveland Center
Tue 06:27:03 PM 42.1850 -83.3547 178° South 149 171 2,300 1,714 Climbing Cleveland Center
Tue 06:28:00 PM 42.2167 -82.9620 90° East  Level FlightAware Approximate
Tue 06:28:04 PM 42.1289 -83.3439 172° South 233 268 3,900  Level Cleveland Center
Tue 06:29:00 PM 42.2167 -82.8310 90° East  Level FlightAware Approximate
Tue 06:29:12 PM 42.0633 -83.2961 152° Southeast 290 334 7,300  Level Cleveland Center
Tue 06:30:00 PM 42.2167 -82.7001 90° East  Level FlightAware Approximate
Tue 06:30:07 PM 42.0783 -83.1933 79° East 317 365 10,000  Level Cleveland Center
Tue 06:30:36 PM 42.0878 -83.1461 75° East 424 488 10,000 1,011 Level Cleveland Center
Tue 06:31:00 PM 42.2167 -82.5691 90° East  Level FlightAware Approximate
Tue 06:31:36 PM 42.1136 -83.0100 76° East 401 461 11,500  Level Cleveland Center
Tue 06:32:36 PM 42.1436 -82.8683 74° East 385 443 13,600 2,350 Climbing Cleveland Center
Tue 06:33:36 PM 42.1694 -82.7208 77° East 392 451 16,200 2,500 Climbing Cleveland Center
Tue 06:34:36 PM 42.1992 -82.5703 75° East 402 463 18,600 2,100 Climbing Cleveland Center
Tue 06:35:36 PM 42.2206 -82.4083 80° East 421 484 20,400 1,900 Climbing Cleveland Center
Tue 06:36:36 PM 42.2106 -82.2456 95° East 426 490 22,400 2,000 Climbing Cleveland Center
Tue 06:37:36 PM 42.1986 -82.0603 95° East 448 516 24,400 1,700 Climbing Cleveland Center
Tue 06:38:36 PM 42.1567 -81.9081 110° East 436 502 25,800 1,250 Climbing Cleveland Center
Tue 06:39:36 PM 42.0764 -81.8056 137° Southeast 436 502 26,900 600 Climbing Cleveland Center
Tue 06:40:36 PM 41.9794 -81.6978 140° Southeast 443 510 27,000 50 Climbing Cleveland Center
Tue 06:41:36 PM 41.8867 -81.5872 138° Southeast 450 518 27,000 150 Level Cleveland Center
Tue 06:42:36 PM 41.7917 -81.4800 140° Southeast 450 518 27,300 700 Climbing Cleveland Center
Tue 06:43:36 PM 41.6947 -81.3700 140° Southeast 450 518 28,400 1,350 Climbing Cleveland Center
Tue 06:44:36 PM 41.5911 -81.2494 139° Southeast 455 524 30,000 1,450 Climbing Cleveland Center
Tue 06:45:36 PM 41.4958 -81.1375 139° Southeast 455 524 31,300 1,300 Climbing Cleveland Center
Tue 06:46:36 PM 41.4108 -81.0178 133° Southeast 455 524 32,600 850 Climbing Cleveland Center
Tue 06:47:36 PM 41.3239 -80.8983 134° Southeast 448 516 33,000 200 Climbing Cleveland Center
Tue 06:48:36 PM 41.2364 -80.7764 134° Southeast 448 516 33,000  Level Cleveland Center
Tue 06:49:36 PM 41.1511 -80.6547 133° Southeast 448 516 33,000  Level Cleveland Center
Tue 06:50:36 PM 41.0678 -80.5392 134° Southeast 448 516 33,000  Level Cleveland Center
Tue 06:51:36 PM 40.9800 -80.4208 134° Southeast 448 516 33,000  Level Cleveland Center
Tue 06:52:36 PM 40.8944 -80.3003 133° Southeast 448 516 33,000  Level Cleveland Center
Tue 06:53:36 PM 40.8106 -80.1769 132° Southeast 448 516 33,000  Level Cleveland Center
Tue 06:54:36 PM 40.7581 -80.0294 115° Southeast 448 516 33,000  Level Cleveland Center
Tue 06:55:36 PM 40.7069 -79.8764 114° Southeast 448 516 33,000  Level Cleveland Center
Tue 06:56:36 PM 40.6497 -79.7292 117° Southeast 448 516 33,000  Level Cleveland Center
Tue 06:57:36 PM 40.5964 -79.5822 116° Southeast 448 516 33,000  Level Cleveland Center
Tue 06:58:36 PM 40.5469 -79.4272 113° Southeast 443 510 33,000  Level Cleveland Center
Tue 06:59:36 PM 40.5161 -79.2722 105° East 449 517 33,000  Level Cleveland Center
Tue 07:00:36 PM 40.4956 -79.1278 101° East 444 511 33,000  Level Cleveland Center
Tue 07:01:36 PM 40.4706 -78.9700 102° East 444 511 33,000  Level Cleveland Center
Tue 07:02:36 PM 40.4472 -78.8069 101° East 449 517 33,000  Level Cleveland Center
Tue 07:03:36 PM 40.4217 -78.6467 102° East 449 517 33,000 -943 Level Cleveland Center
Tue 07:05:15 PM 40.3758 -78.3650 102° East 444 511 30,500 -1,800 Descending New York Center
Tue 07:06:16 PM 40.3522 -78.2097 101° East 439 505 28,200 -2,164 Descending New York Center
Tue 07:07:17 PM 40.3281 -78.0628 102° East 425 489 26,100 -1,587 Descending New York Center
Tue 07:08:17 PM 40.3122 -77.9142 98° East 419 482 25,000 -1,271 Descending New York Center
Tue 07:09:15 PM 40.3108 -77.7642 91° East 414 476 23,600 -1,322 Descending New York Center
Tue 07:10:15 PM 40.3092 -77.6494 91° East 409 471 22,400 -1,400 Descending New York Center
Tue 07:11:15 PM 40.3086 -77.4753 90° East 403 464 20,800 -1,488 Descending New York Center
Tue 07:12:16 PM 40.3061 -77.3361 91° East 398 458 19,400 -885 Descending New York Center
Tue 07:13:17 PM 40.3033 -77.1969 91° East 386 444 19,000 -202 Descending New York Center
Tue 07:14:15 PM 40.2983 -77.0578 93° East 386 444 19,000  Level New York Center
Tue 07:15:16 PM 40.2761 -76.9222 102° East 386 444 19,000  Level New York Center
Tue 07:16:15 PM 40.2386 -76.8022 112° Southeast 380 437 19,000 -650 Level New York Center
Tue 07:17:16 PM 40.2097 -76.6717 106° East 380 437 17,700 -1,328 Descending New York Center
Tue 07:18:17 PM 40.1869 -76.5422 103° East 380 437 16,300 -1,361 Descending New York Center
Tue 07:19:15 PM 40.1731 -76.4025 97° East 356 410 15,000 -1,109 Descending New York Center
Tue 07:20:16 PM 40.1575 -76.2869 100° East 351 404 14,100 -1,230 Descending New York Center
Tue 07:21:17 PM 40.1367 -76.1550 102° East 346 398 12,500 -1,438 Descending New York Center
Tue 07:22:17 PM 40.1228 -76.0453 99° East 336 387 11,200 -1,361 Descending New York Center
Tue 07:23:16 PM 40.1053 -75.9219 100° East 326 375 9,800 -1,261 Descending New York Center
Tue 07:24:16 PM 40.0928 -75.8233 99° East 308 354 8,700 -1,271 Descending New York Center
Tue 07:25:14 PM 40.0789 -75.7083 99° East 296 341 7,300 -1,261 Descending New York Center
Tue 07:26:15 PM 40.0744 -75.6158 94° East 296 341 6,200 -639 Descending New York Center
Tue 07:27:16 PM 40.0686 -75.5042 94° East 291 335 6,000 -98 Descending New York Center
Tue 07:28:17 PM 40.0639 -75.4089 94° East 286 329 6,000  Level New York Center
Tue 07:29:17 PM 40.0539 -75.2969 97° East 286 329 6,000  Level New York Center
Tue 07:29:48 PM 40.0333 -75.2333 113° Southeast 287 330 6,000  Level Philadelphia TRACON
Tue 07:30:42 PM 40.0167 -75.1500 105° East 282 325 6,000  Level Philadelphia TRACON
Tue 07:31:42 PM 40.0000 -75.0667 105° East 206 237 6,000 -476 Level Philadelphia TRACON
Tue 07:32:48 PM 40.0167 -75.0000 72° East 215 247 5,000 -992 Descending Philadelphia TRACON
Tue 07:33:49 PM 39.9833 -74.9500 131° Southeast 178 205 3,900 -1,000 Descending Philadelphia TRACON
Tue 07:34:48 PM 39.9333 -74.9833 207° Southwest 161 185 3,000 -450 Descending Philadelphia TRACON
Tue 07:35:49 PM 39.9167 -75.0333 247° West 168 193 3,000 -365 Level Philadelphia TRACON
Tue 07:36:43 PM 39.9000 -75.0833 247° West 164 189 2,300 -778 Descending Philadelphia TRACON

Login

Don't have an account? Register now (free) for customized features, flight alerts, and more!